Time;durP1;ratioP1;P1;durP2;ratioP2;P2;SDS_P1;SDS_P2;PMS_P1;PMS_P2;Temp;Humidity;BMP_temperature;BMP_pressure;BME280_temperature;BME280_humidity;BME280_pressure;Samples;Min_cycle;Max_cycle;Signal;HPM_P1;HPM_P2
2021/04/10 00:00:42;;;;;;;3.13;2.43;;;12.90;55.10;;;;;;10524803;28;20223;-79
2021/04/10 00:05:43;;;;;;;3.13;2.43;;;12.90;54.90;;;;;;10542931;28;20670;-79
2021/04/10 00:10:45;;;;;;;2.90;2.70;;;12.90;54.40;;;;;;10542171;28;20211;-78
2021/04/10 00:15:48;;;;;;;3.47;2.60;;;12.80;55.00;;;;;;10542422;28;20194;-78
2021/04/10 00:20:49;;;;;;;3.10;2.53;;;12.70;54.90;;;;;;10522117;28;20262;-79
2021/04/10 00:25:51;;;;;;;4.17;2.60;;;12.70;54.80;;;;;;10522589;28;20217;-79
2021/04/10 00:31:06;;;;;;;3.40;3.10;;;12.60;54.60;;;;;;10541074;28;20223;-78
2021/04/10 00:36:09;;;;;;;5.63;2.97;;;12.60;54.90;;;;;;10510360;28;20211;-78
2021/04/10 00:41:12;;;;;;;3.13;2.53;;;12.60;55.20;;;;;;10523932;28;20224;-78
2021/04/10 00:46:15;;;;;;;2.97;2.37;;;12.50;55.30;;;;;;10539669;28;20190;-78
2021/04/10 00:51:19;;;;;;;2.47;2.27;;;12.50;55.70;;;;;;10533946;28;20224;-79
2021/04/10 00:56:21;;;;;;;2.70;2.50;;;12.50;55.90;;;;;;10540427;28;20208;-79
2021/04/10 01:01:25;;;;;;;2.40;2.20;;;12.50;55.60;;;;;;10520513;28;20701;-78
2021/04/10 01:06:27;;;;;;;3.27;2.13;;;12.60;55.50;;;;;;10536318;28;20180;-78
2021/04/10 01:11:37;;;;;;;2.70;2.50;;;12.70;54.50;;;;;;10502002;28;20239;-78
2021/04/10 01:16:47;;;;;;;2.43;2.13;;;12.70;54.60;;;;;;10515959;28;20216;-78
2021/04/10 01:21:55;;;;;;;3.00;2.30;;;12.70;54.30;;;;;;10503040;28;20192;-78
2021/04/10 01:27:28;;;;;;;2.83;2.63;;;12.80;53.70;;;;;;10502602;28;20216;-78
2021/04/10 01:32:35;;;;;;;6.30;2.20;;;12.90;53.80;;;;;;10474333;28;20706;-79
2021/04/10 01:37:42;;;;;;;2.90;2.13;;;12.90;53.80;;;;;;10522663;28;20223;-78
2021/04/10 01:42:47;;;;;;;2.53;2.33;;;13.00;53.20;;;;;;10504256;28;20192;-79
2021/04/10 01:47:54;;;;;;;2.70;2.20;;;13.00;53.70;;;;;;10485042;28;20230;-79
2021/04/10 01:52:58;;;;;;;4.20;2.00;;;13.00;53.80;;;;;;10489560;28;20226;-80
2021/04/10 01:58:01;;;;;;;2.93;2.20;;;13.10;53.70;;;;;;10466595;28;20231;-79
2021/04/10 02:03:10;;;;;;;2.23;2.10;;;13.10;53.50;;;;;;10502275;28;20680;-78
2021/04/10 02:08:15;;;;;;;2.53;1.93;;;13.10;53.50;;;;;;10503578;28;20495;-79
2021/04/10 02:13:18;;;;;;;2.60;2.17;;;13.10;53.90;;;;;;10485326;28;20299;-79
2021/04/10 02:18:23;;;;;;;3.43;2.03;;;13.00;54.30;;;;;;10484909;28;20216;-78
2021/04/10 02:23:29;;;;;;;1.90;1.80;;;13.00;54.40;;;;;;10503114;28;20188;-79
2021/04/10 02:28:39;;;;;;;4.17;2.80;;;13.00;54.30;;;;;;10468702;28;20212;-78
2021/04/10 02:33:44;;;;;;;2.30;2.10;;;13.00;54.70;;;;;;10467807;28;20206;-79
2021/04/10 02:38:49;;;;;;;2.53;1.97;;;13.00;54.40;;;;;;10484865;28;20231;-79
2021/04/10 02:43:56;;;;;;;2.00;1.90;;;13.00;54.90;;;;;;10487808;28;20212;-78
2021/04/10 02:49:02;;;;;;;2.93;2.13;;;13.00;54.80;;;;;;10552232;22;20263;-81
2021/04/10 02:54:08;;;;;;;2.23;2.00;;;13.00;54.60;;;;;;10529763;28;20237;-81
2021/04/10 02:59:13;;;;;;;2.73;2.50;;;13.00;54.90;;;;;;10547880;28;20594;-80
2021/04/10 03:04:17;;;;;;;2.40;2.10;;;13.00;55.20;;;;;;10514373;28;20207;-80
2021/04/10 03:09:19;;;;;;;2.27;2.17;;;12.90;55.20;;;;;;10513618;28;20307;-80
2021/04/10 03:14:21;;;;;;;2.87;2.17;;;13.00;55.20;;;;;;10527997;28;20218;-81
2021/04/10 03:19:25;;;;;;;2.20;2.00;;;13.00;55.90;;;;;;10547290;28;20220;-81
2021/04/10 03:24:31;;;;;;;3.13;2.10;;;12.90;55.80;;;;;;10528184;28;20212;-80
2021/04/10 03:29:35;;;;;;;3.40;2.80;;;12.90;55.80;;;;;;10511361;28;20212;-81
2021/04/10 03:34:41;;;;;;;1.87;1.77;;;12.90;55.90;;;;;;10527111;28;20177;-81
2021/04/10 03:39:45;;;;;;;5.00;2.00;;;13.00;56.10;;;;;;10528122;28;20219;-80
2021/04/10 03:44:47;;;;;;;2.10;1.90;;;13.00;56.60;;;;;;10512283;28;20196;-81
2021/04/10 03:49:50;;;;;;;2.43;2.23;;;12.90;56.80;;;;;;10511224;28;20230;-81
2021/04/10 03:54:51;;;;;;;2.03;1.93;;;12.90;57.10;;;;;;10546353;28;20195;-81
2021/04/10 03:59:53;;;;;;;2.00;1.90;;;12.90;57.60;;;;;;10529690;28;20222;-81
2021/04/10 04:05:02;;;;;;;2.20;2.10;;;12.90;58.00;;;;;;10529415;28;20176;-81
2021/04/10 04:10:05;;;;;;;2.60;2.03;;;12.90;59.00;;;;;;10548925;28;20768;-81
2021/04/10 04:15:08;;;;;;;2.00;1.90;;;12.80;59.30;;;;;;10546467;28;20196;-81
2021/04/10 04:20:11;;;;;;;2.10;1.90;;;12.80;59.50;;;;;;10545393;28;20239;-81
2021/04/10 04:25:13;;;;;;;2.20;2.00;;;12.80;60.70;;;;;;10510594;28;20203;-81
2021/04/10 04:30:16;;;;;;;3.10;2.43;;;12.80;60.00;;;;;;10528799;28;20229;-81
2021/04/10 04:35:19;;;;;;;2.13;2.00;;;12.80;59.80;;;;;;10528115;28;20223;-81
2021/04/10 04:40:20;;;;;;;2.30;2.10;;;12.70;60.20;;;;;;10548205;28;20294;-81
2021/04/10 04:45:24;;;;;;;3.43;2.20;;;12.70;60.70;;;;;;10554232;28;20223;-80
2021/04/10 04:50:26;;;;;;;2.33;2.20;;;12.70;59.90;;;;;;10518795;28;20243;-80
2021/04/10 04:55:28;;;;;;;2.00;1.90;;;12.70;60.10;;;;;;10503668;28;20196;-81
2021/04/10 05:00:29;;;;;;;2.70;1.77;;;12.60;60.00;;;;;;10540612;28;20621;-81
2021/04/10 05:05:32;;;;;;;1.97;1.87;;;12.60;59.60;;;;;;10487667;28;20278;-80
2021/04/10 05:10:34;;;;;;;1.93;1.80;;;12.60;60.80;;;;;;10496254;28;20683;-80
2021/04/10 05:15:35;;;;;;;1.90;1.80;;;12.50;64.50;;;;;;10478714;28;20199;-80
2021/04/10 05:20:38;;;;;;;1.90;1.80;;;12.20;69.10;;;;;;10517062;28;20612;-81
2021/04/10 05:25:39;;;;;;;3.50;2.50;;;12.00;69.90;;;;;;10539851;28;20239;-80
2021/04/10 05:30:41;;;;;;;2.50;1.70;;;11.90;70.10;;;;;;10528152;28;20219;-80
2021/04/10 05:35:47;;;;;;;2.37;2.20;;;11.80;70.60;;;;;;10525924;28;20191;-80
2021/04/10 05:40:49;;;;;;;1.87;1.77;;;11.90;70.20;;;;;;10516727;28;21041;-80
2021/04/10 05:45:50;;;;;;;1.97;1.87;;;11.90;70.00;;;;;;10502907;28;20191;-80
2021/04/10 05:50:54;;;;;;;1.70;1.60;;;11.90;68.90;;;;;;10504956;28;20215;-80
2021/04/10 05:55:56;;;;;;;1.83;1.73;;;12.00;68.70;;;;;;10529193;28;20274;-80
2021/04/10 06:00:58;;;;;;;2.20;2.00;;;12.10;67.70;;;;;;10512155;28;20311;-80
2021/04/10 06:06:00;;;;;;;1.93;1.83;;;12.10;66.40;;;;;;10524684;28;20200;-80
2021/04/10 06:11:02;;;;;;;3.70;2.27;;;12.20;65.90;;;;;;10483043;28;20213;-80
2021/04/10 06:16:05;;;;;;;3.20;2.30;;;12.20;65.60;;;;;;10481154;28;20185;-80
2021/04/10 06:21:08;;;;;;;2.93;2.43;;;12.30;65.00;;;;;;10489307;28;20223;-80
2021/04/10 06:26:10;;;;;;;3.17;2.20;;;12.30;64.30;;;;;;10513505;28;20188;-80
2021/04/10 06:31:11;;;;;;;3.03;2.00;;;12.30;64.20;;;;;;10549419;28;20243;-80
2021/04/10 06:36:14;;;;;;;1.47;1.37;;;12.30;64.40;;;;;;10506387;28;20196;-80
2021/04/10 06:41:16;;;;;;;1.90;1.80;;;12.30;64.60;;;;;;10550452;28;20215;-80
2021/04/10 06:46:18;;;;;;;2.90;2.23;;;12.30;64.80;;;;;;10535306;28;20204;-80
2021/04/10 06:51:22;;;;;;;2.57;2.37;;;12.30;65.20;;;;;;10545676;28;20219;-80
2021/04/10 06:56:25;;;;;;;4.90;2.00;;;12.30;65.30;;;;;;10506377;28;20314;-80
2021/04/10 07:01:27;;;;;;;2.23;1.70;;;12.30;65.70;;;;;;10527824;28;20227;-79
2021/04/10 07:06:31;;;;;;;2.40;2.20;;;12.30;66.20;;;;;;10536989;28;20286;-79
2021/04/10 07:11:33;;;;;;;2.07;1.97;;;12.20;71.40;;;;;;10528721;28;20303;-80
2021/04/10 07:16:37;;;;;;;2.90;2.10;;;12.00;74.90;;;;;;10546898;28;20199;-79
2021/04/10 07:21:40;;;;;;;3.27;2.10;;;11.80;76.10;;;;;;10548543;28;20207;-79
2021/04/10 07:26:54;;;;;;;2.87;2.10;;;11.80;76.90;;;;;;10534915;28;20189;-79
2021/04/10 07:31:56;;;;;;;2.70;2.17;;;11.80;75.70;;;;;;10525128;28;20197;-80
2021/04/10 07:36:59;;;;;;;1.83;1.73;;;11.90;74.30;;;;;;10505297;28;20695;-80
2021/04/10 07:42:02;;;;;;;2.90;1.70;;;12.00;73.70;;;;;;10539009;28;20191;-80
2021/04/10 07:47:05;;;;;;;2.03;1.83;;;12.10;72.00;;;;;;10525403;28;20337;-80
2021/04/10 07:52:09;;;;;;;2.57;1.90;;;12.20;71.40;;;;;;10526932;28;20215;-80
2021/04/10 07:57:12;;;;;;;1.70;1.60;;;12.20;70.60;;;;;;10521990;28;20261;-80
2021/04/10 08:02:15;;;;;;;1.80;1.70;;;12.20;71.10;;;;;;10509273;28;20234;-80
2021/04/10 08:07:25;;;;;;;2.43;2.23;;;12.20;72.10;;;;;;10527255;28;20235;-80
2021/04/10 08:12:29;;;;;;;5.10;2.17;;;12.30;72.30;;;;;;10544687;28;20215;-80
2021/04/10 08:17:36;;;;;;;2.17;1.80;;;12.30;75.60;;;;;;10525889;28;20314;-80
2021/04/10 08:22:38;;;;;;;5.23;2.07;;;12.10;78.50;;;;;;10520356;28;20196;-80
2021/04/10 08:27:40;;;;;;;2.10;2.00;;;12.00;78.40;;;;;;10526790;28;20229;-80
2021/04/10 08:32:42;;;;;;;2.07;1.87;;;12.00;78.00;;;;;;10488171;28;20227;-80
2021/04/10 08:37:51;;;;;;;3.03;2.20;;;12.00;78.10;;;;;;10511424;28;20227;-80
2021/04/10 08:42:56;;;;;;;2.13;1.83;;;12.10;78.00;;;;;;10545278;28;20200;-80
2021/04/10 08:48:02;;;;;;;1.90;1.80;;;12.10;77.10;;;;;;10544739;28;20215;-80
2021/04/10 08:53:08;;;;;;;2.00;1.90;;;12.30;78.00;;;;;;10525660;28;20200;-80
2021/04/10 08:58:21;;;;;;;1.57;1.53;;;12.40;75.80;;;;;;10508751;28;20247;-80
2021/04/10 09:03:49;;;;;;;2.60;1.90;;;12.50;76.20;;;;;;10532422;28;20528;-80
2021/04/10 09:08:52;;;;;;;1.87;1.77;;;12.60;75.00;;;;;;10519312;28;20220;-80
2021/04/10 09:13:54;;;;;;;2.03;1.93;;;12.70;74.40;;;;;;10542287;28;20188;-80
2021/04/10 09:18:59;;;;;;;2.37;2.17;;;12.70;74.00;;;;;;10523830;28;20215;-80
2021/04/10 09:24:27;;;;;;;1.90;1.77;;;12.80;73.60;;;;;;10528630;28;20291;-80
2021/04/10 09:29:30;;;;;;;2.27;1.87;;;12.90;71.50;;;;;;10525545;28;20208;-80
2021/04/10 09:34:55;;;;;;;1.70;1.60;;;12.90;72.40;;;;;;10543316;28;20667;-81
2021/04/10 09:40:00;;;;;;;2.00;1.80;;;13.00;69.00;;;;;;10541381;28;20223;-80
2021/04/10 09:45:06;;;;;;;2.03;1.80;;;12.90;70.00;;;;;;10522623;28;20726;-80
2021/04/10 09:50:13;;;;;;;2.00;1.90;;;13.00;70.30;;;;;;10523621;28;20224;-80
2021/04/10 09:55:19;;;;;;;1.60;1.50;;;13.10;70.30;;;;;;10528647;28;20229;-80
2021/04/10 10:00:25;;;;;;;2.40;1.50;;;13.10;71.10;;;;;;10546306;28;20266;-80
2021/04/10 10:05:31;;;;;;;2.57;1.80;;;13.20;69.60;;;;;;10544458;28;20260;-80
2021/04/10 10:10:36;;;;;;;2.40;1.70;;;13.20;69.80;;;;;;10550080;28;20219;-80
2021/04/10 10:15:38;;;;;;;2.90;2.23;;;13.30;68.40;;;;;;10551862;28;20195;-81
2021/04/10 10:20:40;;;;;;;2.70;1.87;;;13.30;67.60;;;;;;10534497;28;20276;-80
2021/04/10 10:25:43;;;;;;;1.90;1.80;;;13.30;68.00;;;;;;10535676;28;20229;-80
2021/04/10 10:30:46;;;;;;;2.30;2.20;;;13.40;67.20;;;;;;10533837;28;20262;-80
2021/04/10 10:35:52;;;;;;;1.70;1.60;;;13.40;66.80;;;;;;10546563;28;20198;-80
2021/04/10 10:40:56;;;;;;;1.70;1.60;;;13.50;67.20;;;;;;10546577;28;20254;-80
2021/04/10 10:46:03;;;;;;;2.37;2.20;;;13.60;67.60;;;;;;10543960;28;20195;-80
2021/04/10 10:51:07;;;;;;;2.17;2.07;;;13.60;66.40;;;;;;10513300;28;20242;-80
2021/04/10 10:56:15;;;;;;;3.00;1.77;;;13.80;66.00;;;;;;10524330;28;20245;-80
2021/04/10 11:01:23;;;;;;;1.67;1.57;;;14.00;66.50;;;;;;10526530;28;20723;-81
2021/04/10 11:06:27;;;;;;;2.00;1.70;;;14.10;64.50;;;;;;10527088;28;20228;-80
2021/04/10 11:11:33;;;;;;;2.53;1.70;;;14.20;64.90;;;;;;10546077;28;20219;-80
2021/04/10 11:16:41;;;;;;;1.93;1.83;;;14.50;63.10;;;;;;10524170;28;20196;-80
2021/04/10 11:21:50;;;;;;;1.97;1.73;;;14.80;63.90;;;;;;10525682;28;20314;-80
2021/04/10 11:26:55;;;;;;;1.87;1.77;;;15.10;63.50;;;;;;10541284;28;20238;-80
2021/04/10 11:32:19;;;;;;;2.63;1.70;;;15.30;63.30;;;;;;10526741;28;20192;-80
2021/04/10 11:37:22;;;;;;;1.70;1.60;;;15.50;62.00;;;;;;10542655;28;20235;-80
2021/04/10 11:42:27;;;;;;;2.30;2.07;;;15.70;62.80;;;;;;10541924;28;20195;-80
2021/04/10 11:47:30;;;;;;;1.60;1.50;;;15.90;62.30;;;;;;10544489;28;20646;-80
2021/04/10 11:52:33;;;;;;;2.20;1.90;;;15.90;61.00;;;;;;10530424;28;20271;-80
2021/04/10 11:57:37;;;;;;;2.50;1.63;;;15.90;61.60;;;;;;10543196;28;20223;-80
2021/04/10 12:02:40;;;;;;;1.83;1.73;;;15.90;62.40;;;;;;10524520;28;20188;-81
2021/04/10 12:08:13;;;;;;;1.73;1.63;;;15.90;61.20;;;;;;10523742;28;20306;-80
2021/04/10 12:13:17;;;;;;;1.80;1.70;;;15.80;61.00;;;;;;10530076;28;20663;-81
2021/04/10 12:18:20;;;;;;;1.73;1.63;;;15.70;61.60;;;;;;10544625;28;20245;-81
2021/04/10 12:23:22;;;;;;;1.80;1.53;;;15.80;62.00;;;;;;10537468;28;20193;-80
2021/04/10 12:28:25;;;;;;;1.67;1.57;;;16.00;61.90;;;;;;10513257;28;20212;-80
2021/04/10 12:33:27;;;;;;;1.70;1.60;;;16.20;58.70;;;;;;10518360;28;20207;-81
2021/04/10 12:38:28;;;;;;;1.83;1.73;;;16.20;58.90;;;;;;10515142;28;20215;-80
2021/04/10 12:43:31;;;;;;;2.00;1.90;;;16.30;60.20;;;;;;10498455;28;20672;-80
2021/04/10 12:48:33;;;;;;;1.60;1.50;;;16.30;59.00;;;;;;10538130;28;20609;-80
2021/04/10 12:53:35;;;;;;;1.80;1.60;;;16.50;60.40;;;;;;10536460;28;20192;-80
2021/04/10 12:58:37;;;;;;;1.37;1.30;;;16.60;57.00;;;;;;10541579;28;20224;-80
2021/04/10 13:03:39;;;;;;;2.90;2.70;;;16.50;57.60;;;;;;10542207;28;20602;-80
2021/04/10 13:08:40;;;;;;;1.93;1.73;;;16.30;56.10;;;;;;10542880;28;20203;-80
2021/04/10 13:13:43;;;;;;;2.13;2.03;;;16.00;57.80;;;;;;10524302;28;20223;-80
2021/04/10 13:18:45;;;;;;;1.97;1.77;;;15.80;55.80;;;;;;10536846;28;20219;-80
2021/04/10 13:23:47;;;;;;;1.90;1.80;;;15.60;57.20;;;;;;10541413;28;20192;-80
2021/04/10 13:28:50;;;;;;;1.60;1.50;;;15.50;57.80;;;;;;10504663;28;20239;-81
2021/04/10 13:33:52;;;;;;;1.77;1.67;;;15.40;59.40;;;;;;10525617;28;20206;-80
2021/04/10 13:38:53;;;;;;;2.00;1.80;;;15.30;58.50;;;;;;10532983;28;20243;-80
2021/04/10 13:43:56;;;;;;;1.93;1.80;;;15.40;57.70;;;;;;10539704;28;20228;-80
2021/04/10 13:48:58;;;;;;;1.80;1.70;;;15.40;58.80;;;;;;10524511;28;20275;-80
2021/04/10 13:54:00;;;;;;;1.60;1.50;;;15.50;58.80;;;;;;10521312;28;20203;-80
2021/04/10 13:59:03;;;;;;;7.23;5.40;;;15.60;55.70;;;;;;10523466;28;20222;-80
2021/04/10 14:04:05;;;;;;;2.87;2.50;;;15.90;54.60;;;;;;10532229;28;20195;-80
2021/04/10 14:09:08;;;;;;;4.23;3.53;;;16.20;55.50;;;;;;10526330;28;20236;-80
2021/04/10 14:14:10;;;;;;;3.50;2.30;;;16.50;53.80;;;;;;10539850;28;20192;-80
2021/04/10 14:19:11;;;;;;;1.77;1.67;;;16.60;54.30;;;;;;10503465;28;20315;-81
2021/04/10 14:24:14;;;;;;;1.80;1.70;;;16.70;55.10;;;;;;10532400;28;20200;-80
2021/04/10 14:29:15;;;;;;;1.67;1.57;;;16.80;54.90;;;;;;10539851;28;20666;-80
2021/04/10 14:34:17;;;;;;;1.40;1.30;;;16.80;56.60;;;;;;10542461;28;20199;-78
2021/04/10 14:39:19;;;;;;;1.77;1.67;;;16.90;49.10;;;;;;10537346;28;20290;-78
2021/04/10 14:44:21;;;;;;;1.33;1.33;;;17.10;51.30;;;;;;10525378;28;20195;-78
2021/04/10 14:49:23;;;;;;;1.60;1.50;;;17.00;50.70;;;;;;10544619;28;20212;-78
2021/04/10 14:54:25;;;;;;;1.83;1.73;;;17.00;51.90;;;;;;10547467;28;20192;-78
2021/04/10 14:59:27;;;;;;;2.07;1.67;;;16.90;47.30;;;;;;10546187;28;20299;-78
2021/04/10 15:04:30;;;;;;;1.37;1.37;;;16.80;47.60;;;;;;10544775;28;20237;-78
2021/04/10 15:09:33;;;;;;;1.73;1.63;;;16.80;46.80;;;;;;10545052;28;20200;-78
2021/04/10 15:14:34;;;;;;;1.60;1.50;;;16.80;47.60;;;;;;10545780;28;20192;-78
2021/04/10 15:19:36;;;;;;;1.50;1.40;;;16.80;49.00;;;;;;10546138;28;20220;-78
2021/04/10 15:24:39;;;;;;;1.73;1.50;;;16.60;49.90;;;;;;10543704;28;20192;-78
2021/04/10 15:29:40;;;;;;;1.40;1.30;;;16.40;51.10;;;;;;10525024;28;20208;-78
2021/04/10 15:34:48;;;;;;;1.90;1.27;;;16.40;51.60;;;;;;10542852;28;20548;-78
2021/04/10 15:39:51;;;;;;;1.53;1.43;;;16.40;48.30;;;;;;10525984;28;20216;-78
2021/04/10 15:44:53;;;;;;;1.60;1.50;;;16.40;52.00;;;;;;10542424;28;20632;-78
2021/04/10 15:49:54;;;;;;;1.50;1.40;;;16.30;50.10;;;;;;10541184;28;20223;-78
2021/04/10 15:54:57;;;;;;;1.70;1.60;;;16.20;47.70;;;;;;10542391;28;20199;-78
2021/04/10 15:59:59;;;;;;;2.40;2.10;;;16.40;47.10;;;;;;10542658;28;20243;-78
2021/04/10 16:05:00;;;;;;;2.10;2.00;;;16.50;47.40;;;;;;10542912;28;20188;-78
2021/04/10 16:10:04;;;;;;;2.10;2.00;;;16.60;48.40;;;;;;10542226;28;20418;-78
2021/04/10 16:15:07;;;;;;;2.10;2.00;;;16.70;49.20;;;;;;10542613;28;20200;-78
2021/04/10 16:20:13;;;;;;;2.03;1.93;;;16.80;48.90;;;;;;10542590;28;20275;-78
2021/04/10 16:25:15;;;;;;;3.03;2.67;;;16.80;50.20;;;;;;10523637;28;20196;-78
2021/04/10 16:30:20;;;;;;;4.17;3.77;;;16.90;50.00;;;;;;10543529;28;20693;-77
2021/04/10 16:35:22;;;;;;;3.60;2.70;;;17.00;50.70;;;;;;10539716;28;20226;-78
2021/04/10 16:40:29;;;;;;;7.57;5.33;;;16.90;52.40;;;;;;10540967;28;20216;-78
2021/04/10 16:45:31;;;;;;;3.20;3.00;;;16.90;54.10;;;;;;10539673;28;20221;-78
2021/04/10 16:50:33;;;;;;;4.50;2.50;;;16.90;54.50;;;;;;10541255;28;20234;-78
2021/04/10 16:55:36;;;;;;;3.27;2.53;;;16.90;55.40;;;;;;10521505;28;20213;-78
2021/04/10 17:00:37;;;;;;;2.47;2.20;;;16.90;55.30;;;;;;10522322;28;20700;-78
2021/04/10 17:05:41;;;;;;;2.50;2.30;;;16.90;56.00;;;;;;10505288;28;20196;-78
2021/04/10 17:10:44;;;;;;;3.00;2.20;;;16.80;55.90;;;;;;10540357;28;20318;-78
2021/04/10 17:15:46;;;;;;;4.40;3.10;;;16.80;56.30;;;;;;10538667;28;20195;-78
2021/04/10 17:20:47;;;;;;;2.57;2.33;;;16.70;56.70;;;;;;10521865;28;20229;-77
2021/04/10 17:25:50;;;;;;;3.47;2.87;;;16.70;56.70;;;;;;10538922;28;20659;-78
2021/04/10 17:30:52;;;;;;;3.47;3.00;;;16.60;56.90;;;;;;10538600;28;20254;-77
2021/04/10 17:35:54;;;;;;;3.27;2.97;;;16.60;57.30;;;;;;10520561;28;20679;-78
2021/04/10 17:40:57;;;;;;;4.40;3.00;;;16.50;57.70;;;;;;10540042;28;20236;-78
2021/04/10 17:45:59;;;;;;;3.70;2.90;;;16.50;57.90;;;;;;10539088;28;20188;-77
2021/04/10 17:51:01;;;;;;;2.40;2.30;;;16.50;58.20;;;;;;10521403;28;20699;-77
2021/04/10 17:56:09;;;;;;;3.10;2.90;;;16.40;58.50;;;;;;10539667;28;20705;-78
2021/04/10 18:01:11;;;;;;;3.80;3.50;;;16.30;59.00;;;;;;10539685;28;20224;-78
2021/04/10 18:06:13;;;;;;;5.27;4.87;;;16.30;59.30;;;;;;10504555;28;20207;-78
2021/04/10 18:11:16;;;;;;;2.90;2.70;;;16.20;59.70;;;;;;10540338;28;20232;-78
2021/04/10 18:16:18;;;;;;;3.33;3.10;;;16.10;60.30;;;;;;10527501;28;20629;-77
2021/04/10 18:21:19;;;;;;;4.03;3.63;;;16.10;60.80;;;;;;10547572;28;20247;-78
2021/04/10 18:26:24;;;;;;;4.30;3.07;;;16.00;61.10;;;;;;10531558;28;20567;-78
2021/04/10 18:31:25;;;;;;;3.53;3.33;;;15.90;61.90;;;;;;10546570;28;20204;-78
2021/04/10 18:36:29;;;;;;;4.97;4.50;;;15.80;62.00;;;;;;10546823;28;20199;-78
2021/04/10 18:41:32;;;;;;;6.93;4.17;;;15.70;62.60;;;;;;10529637;28;20718;-78
2021/04/10 18:46:33;;;;;;;5.23;4.73;;;15.70;63.10;;;;;;10547972;28;20215;-78
2021/04/10 18:51:36;;;;;;;6.07;4.43;;;15.50;62.90;;;;;;10545782;28;20299;-77
2021/04/10 18:56:39;;;;;;;5.30;4.90;;;15.50;63.50;;;;;;10543447;28;20586;-78
2021/04/10 19:01:40;;;;;;;16.83;12.37;;;15.40;63.60;;;;;;10525528;28;20215;-77
2021/04/10 19:06:42;;;;;;;9.00;6.10;;;15.40;64.00;;;;;;10544299;28;20207;-77
2021/04/10 19:11:52;;;;;;;5.60;5.10;;;15.30;64.10;;;;;;10522989;28;20223;-78
2021/04/10 19:16:54;;;;;;;4.97;4.57;;;15.20;64.30;;;;;;10484271;28;20228;-78
2021/04/10 19:21:59;;;;;;;9.60;6.00;;;15.20;65.10;;;;;;10502039;28;20791;-78
2021/04/10 19:27:02;;;;;;;4.67;4.27;;;15.10;64.90;;;;;;10521221;28;20678;-77
2021/04/10 19:32:04;;;;;;;6.10;5.40;;;15.10;64.30;;;;;;10487090;28;20188;-77
2021/04/10 19:37:07;;;;;;;5.73;5.20;;;15.10;64.80;;;;;;10526257;28;20196;-78
2021/04/10 19:42:10;;;;;;;5.53;4.37;;;15.10;65.00;;;;;;10519918;28;20207;-77
2021/04/10 19:47:12;;;;;;;6.77;5.50;;;15.00;65.40;;;;;;10497298;28;20197;-78
2021/04/10 19:52:14;;;;;;;6.83;5.73;;;15.00;65.40;;;;;;10517296;28;20198;-78
2021/04/10 19:57:16;;;;;;;7.80;5.73;;;15.00;65.70;;;;;;10525682;28;20694;-77
2021/04/10 20:02:18;;;;;;;8.20;5.90;;;14.90;65.50;;;;;;10584148;28;20218;-78
2021/04/10 20:07:20;;;;;;;10.30;8.10;;;14.90;65.80;;;;;;10564126;28;20207;-78
2021/04/10 20:12:22;;;;;;;10.10;8.53;;;14.80;66.30;;;;;;10542632;28;20819;-78
2021/04/10 20:17:24;;;;;;;8.73;5.97;;;14.80;65.60;;;;;;10523054;28;20224;-78
2021/04/10 20:22:28;;;;;;;5.20;4.70;;;14.80;65.50;;;;;;10528874;28;20232;-77
2021/04/10 20:27:34;;;;;;;5.00;3.87;;;14.70;65.30;;;;;;10478883;28;20758;-78
2021/04/10 20:32:36;;;;;;;4.93;4.47;;;14.70;65.10;;;;;;10519580;28;20414;-78
2021/04/10 20:37:38;;;;;;;6.00;4.20;;;14.70;65.30;;;;;;10520180;28;20220;-78
2021/04/10 20:42:41;;;;;;;5.20;4.77;;;14.70;65.30;;;;;;10481456;28;20672;-78
2021/04/10 20:47:42;;;;;;;6.53;5.13;;;14.60;65.20;;;;;;10520468;28;20219;-78
2021/04/10 20:52:44;;;;;;;5.50;4.60;;;14.60;65.40;;;;;;10569306;22;20319;-84
2021/04/10 20:57:50;;;;;;;5.20;4.70;;;14.60;65.50;;;;;;10560245;28;20192;-83
2021/04/10 21:02:55;;;;;;;11.07;5.23;;;14.60;65.70;;;;;;10553129;28;20239;-84
2021/04/10 21:07:56;;;;;;;5.70;4.40;;;14.50;65.00;;;;;;10540405;28;20548;-82
2021/04/10 21:12:59;;;;;;;3.53;3.33;;;14.50;65.40;;;;;;10538744;28;20195;-82
2021/04/10 21:18:01;;;;;;;3.90;3.50;;;14.50;64.90;;;;;;10535813;28;20710;-80
2021/04/10 21:23:04;;;;;;;3.70;3.40;;;14.40;64.50;;;;;;10527740;28;20259;-83
2021/04/10 21:28:09;;;;;;;5.57;3.27;;;14.40;64.20;;;;;;10511861;28;20265;-83
2021/04/10 21:33:13;;;;;;;5.40;3.80;;;14.40;63.80;;;;;;10527195;28;20200;-82
2021/04/10 21:38:21;;;;;;;3.83;3.40;;;14.40;64.20;;;;;;10522803;28;20200;-83
2021/04/10 21:43:25;;;;;;;3.20;2.97;;;14.30;64.10;;;;;;10524649;28;20198;-83
2021/04/10 21:48:26;;;;;;;3.50;3.20;;;14.30;63.80;;;;;;10511296;28;20251;-84
2021/04/10 21:53:54;;;;;;;5.00;3.20;;;14.30;63.90;;;;;;10484391;28;20242;-83
2021/04/10 22:06:47;;;;;;;3.00;2.70;;;14.20;63.30;;;;;;10413287;28;20246;-83
2021/04/10 22:30:17;;;;;;;2.90;2.70;;;14.00;63.10;;;;;;10760829;22;20239;-82
2021/04/10 22:35:28;;;;;;;4.50;2.83;;;14.00;63.30;;;;;;10418825;28;20201;-84
2021/04/10 22:48:08;;;;;;;3.53;2.80;;;14.00;63.20;;;;;;10306261;28;20219;-82
2021/04/10 22:53:35;;;;;;;3.50;3.23;;;13.90;63.30;;;;;;10450006;28;20658;-82
2021/04/10 22:58:48;;;;;;;3.70;3.20;;;13.90;63.10;;;;;;10538235;22;20359;-81
2021/04/10 23:04:41;;;;;;;2.83;2.63;;;13.90;63.50;;;;;;10475618;28;20638;-81
2021/04/10 23:16:31;;;;;;;2.43;2.33;;;13.80;63.20;;;;;;10153715;29;20252;-82
2021/04/10 23:21:37;;;;;;;2.47;2.23;;;13.60;62.60;;;;;;10410676;28;20267;-81
2021/04/10 23:26:39;;;;;;;2.13;1.93;;;13.60;62.90;;;;;;10465216;28;20193;-81
2021/04/10 23:38:44;;;;;;;2.30;2.20;;;13.40;61.90;;;;;;10184864;29;20224;-83
2021/04/10 23:43:49;;;;;;;1.90;1.80;;;13.30;61.80;;;;;;10261617;28;20366;-81
2021/04/10 23:48:51;;;;;;;2.10;2.00;;;13.30;61.70;;;;;;10442367;28;20217;-81
2021/04/10 23:53:53;;;;;;;2.17;2.07;;;13.30;61.80;;;;;;10441981;28;20186;-82
2021/04/10 23:58:55;;;;;;;1.90;1.80;;;13.30;61.90;;;;;;10448628;28;20605;-80
